sensor_id;sensor_type;location;lat;lon;timestamp;pressure;altitude;pressure_sealevel;temperature;humidity
50462;BME280;45257;37.996;-122.328;2022-07-23T00:01:42;101054.75;;;20.48;57.62
50462;BME280;45257;37.996;-122.328;2022-07-23T00:04:09;101048.34;;;20.49;57.66
50462;BME280;45257;37.996;-122.328;2022-07-23T00:06:36;101051.88;;;20.49;57.55
50462;BME280;45257;37.996;-122.328;2022-07-23T00:09:04;101050.00;;;20.50;57.65
50462;BME280;45257;37.996;-122.328;2022-07-23T00:11:33;101050.63;;;20.52;57.87
50462;BME280;45257;37.996;-122.328;2022-07-23T00:14:00;101051.66;;;20.51;57.61
50462;BME280;45257;37.996;-122.328;2022-07-23T00:16:27;101055.84;;;20.53;57.61
50462;BME280;45257;37.996;-122.328;2022-07-23T00:18:54;101046.72;;;20.54;57.55
50462;BME280;45257;37.996;-122.328;2022-07-23T00:21:21;101058.31;;;20.55;57.52
50462;BME280;45257;37.996;-122.328;2022-07-23T00:23:48;101046.72;;;20.54;57.61
50462;BME280;45257;37.996;-122.328;2022-07-23T00:26:15;101041.16;;;20.56;57.67
50462;BME280;45257;37.996;-122.328;2022-07-23T00:28:42;101054.38;;;20.57;57.62
50462;BME280;45257;37.996;-122.328;2022-07-23T00:31:09;101048.81;;;20.59;57.54
50462;BME280;45257;37.996;-122.328;2022-07-23T00:33:36;101048.81;;;20.59;57.70
50462;BME280;45257;37.996;-122.328;2022-07-23T00:36:03;101050.50;;;20.60;57.48
50462;BME280;45257;37.996;-122.328;2022-07-23T00:38:31;101051.31;;;20.61;57.46
50462;BME280;45257;37.996;-122.328;2022-07-23T00:40:58;101045.13;;;20.60;57.72
50462;BME280;45257;37.996;-122.328;2022-07-23T00:43:25;101045.75;;;20.62;57.55
50462;BME280;45257;37.996;-122.328;2022-07-23T00:45:52;101044.72;;;20.63;57.49
50462;BME280;45257;37.996;-122.328;2022-07-23T00:48:19;101035.59;;;20.64;57.45
50462;BME280;45257;37.996;-122.328;2022-07-23T00:50:46;101038.09;;;20.66;57.30
50462;BME280;45257;37.996;-122.328;2022-07-23T00:53:14;101038.91;;;20.66;57.38
50462;BME280;45257;37.996;-122.328;2022-07-23T00:55:41;101039.75;;;20.67;57.33
50462;BME280;45257;37.996;-122.328;2022-07-23T00:58:09;101040.41;;;20.69;57.22
50462;BME280;45257;37.996;-122.328;2022-07-23T01:00:36;101037.72;;;20.69;57.33
50462;BME280;45257;37.996;-122.328;2022-07-23T01:03:04;101045.56;;;20.70;57.38
50462;BME280;45257;37.996;-122.328;2022-07-23T01:05:31;101045.56;;;20.70;57.32
50462;BME280;45257;37.996;-122.328;2022-07-23T01:07:58;101043.50;;;20.72;57.33
50462;BME280;45257;37.996;-122.328;2022-07-23T01:10:25;101039.78;;;20.73;57.23
50462;BME280;45257;37.996;-122.328;2022-07-23T01:13:09;101038.75;;;20.75;57.35
50462;BME280;45257;37.996;-122.328;2022-07-23T01:15:38;101042.09;;;20.77;57.22
50462;BME280;45257;37.996;-122.328;2022-07-23T01:18:07;101035.69;;;20.78;57.59
50462;BME280;45257;37.996;-122.328;2022-07-23T01:20:34;101030.31;;;20.78;57.57
50462;BME280;45257;37.996;-122.328;2022-07-23T01:23:01;101020.41;;;20.78;57.45
50462;BME280;45257;37.996;-122.328;2022-07-23T01:25:28;101023.72;;;20.80;57.46
50462;BME280;45257;37.996;-122.328;2022-07-23T01:27:55;101025.38;;;20.81;57.37
50462;BME280;45257;37.996;-122.328;2022-07-23T01:30:23;101019.78;;;20.83;57.38
50462;BME280;45257;37.996;-122.328;2022-07-23T01:32:50;101024.13;;;20.84;57.48
50462;BME280;45257;37.996;-122.328;2022-07-23T01:35:17;101018.75;;;20.84;57.47
50462;BME280;45257;37.996;-122.328;2022-07-23T01:37:44;101008.63;;;20.86;57.32
50462;BME280;45257;37.996;-122.328;2022-07-23T01:40:11;101007.59;;;20.87;57.54
50462;BME280;45257;37.996;-122.328;2022-07-23T01:42:38;101004.09;;;20.86;57.45
50462;BME280;45257;37.996;-122.328;2022-07-23T01:45:06;100999.53;;;20.87;57.34
50462;BME280;45257;37.996;-122.328;2022-07-23T01:47:33;100998.50;;;20.88;57.34
50462;BME280;45257;37.996;-122.328;2022-07-23T01:50:01;101001.81;;;20.90;57.37
50462;BME280;45257;37.996;-122.328;2022-07-23T01:52:28;100997.06;;;20.92;57.43
50462;BME280;45257;37.996;-122.328;2022-07-23T01:54:54;100991.69;;;20.92;57.37
50462;BME280;45257;37.996;-122.328;2022-07-23T01:57:21;100989.00;;;20.92;57.14
50462;BME280;45257;37.996;-122.328;2022-07-23T01:59:49;100985.28;;;20.93;57.34
50462;BME280;45257;37.996;-122.328;2022-07-23T02:02:16;100989.81;;;20.93;57.40
50462;BME280;45257;37.996;-122.328;2022-07-23T02:04:43;100984.44;;;20.93;57.26
50462;BME280;45257;37.996;-122.328;2022-07-23T02:07:10;100983.41;;;20.94;57.42
50462;BME280;45257;37.996;-122.328;2022-07-23T02:09:36;100994.16;;;20.94;57.44
50462;BME280;45257;37.996;-122.328;2022-07-23T02:12:04;100981.56;;;20.94;57.50
50462;BME280;45257;37.996;-122.328;2022-07-23T02:14:31;100988.59;;;20.95;57.40
50462;BME280;45257;37.996;-122.328;2022-07-23T02:16:58;100978.66;;;20.96;57.38
50462;BME280;45257;37.996;-122.328;2022-07-23T02:19:25;100976.81;;;20.96;57.43
50462;BME280;45257;37.996;-122.328;2022-07-23T02:21:52;100973.09;;;20.97;57.33
50462;BME280;45257;37.996;-122.328;2022-07-23T02:24:21;100981.16;;;20.97;57.40
50462;BME280;45257;37.996;-122.328;2022-07-23T02:26:48;100979.50;;;20.96;57.33
50462;BME280;45257;37.996;-122.328;2022-07-23T02:29:15;100987.56;;;20.96;57.46
50462;BME280;45257;37.996;-122.328;2022-07-23T02:31:43;100980.31;;;20.97;57.39
50462;BME280;45257;37.996;-122.328;2022-07-23T02:34:10;100986.56;;;20.97;57.30
50462;BME280;45257;37.996;-122.328;2022-07-23T02:36:38;100988.22;;;20.98;57.36
50462;BME280;45257;37.996;-122.328;2022-07-23T02:39:06;100988.22;;;20.98;57.44
50462;BME280;45257;37.996;-122.328;2022-07-23T02:41:33;100989.03;;;20.99;57.42
50462;BME280;45257;37.996;-122.328;2022-07-23T02:44:00;100985.50;;;20.98;57.46
50462;BME280;45257;37.996;-122.328;2022-07-23T02:46:27;101004.34;;;20.98;57.26
50462;BME280;45257;37.996;-122.328;2022-07-23T02:48:54;100990.91;;;20.98;57.34
50462;BME280;45257;37.996;-122.328;2022-07-23T02:51:21;100997.31;;;20.97;57.24
50462;BME280;45257;37.996;-122.328;2022-07-23T02:53:48;100993.97;;;20.95;57.29
50462;BME280;45257;37.996;-122.328;2022-07-23T02:56:15;100996.84;;;20.94;57.35
50462;BME280;45257;37.996;-122.328;2022-07-23T02:58:42;100999.34;;;20.95;57.32
50462;BME280;45257;37.996;-122.328;2022-07-23T03:01:09;100997.31;;;20.97;57.35
50462;BME280;45257;37.996;-122.328;2022-07-23T03:03:36;101002.69;;;20.97;57.19
50462;BME280;45257;37.996;-122.328;2022-07-23T03:06:03;101003.50;;;20.98;57.02
50462;BME280;45257;37.996;-122.328;2022-07-23T03:08:30;101002.47;;;20.99;57.03
50462;BME280;45257;37.996;-122.328;2022-07-23T03:10:57;101003.31;;;20.99;57.00
50462;BME280;45257;37.996;-122.328;2022-07-23T03:13:24;101003.31;;;20.99;57.02
50462;BME280;45257;37.996;-122.328;2022-07-23T03:15:51;100996.88;;;21.00;57.31
50462;BME280;45257;37.996;-122.328;2022-07-23T03:18:18;100998.53;;;21.01;56.98
50462;BME280;45257;37.996;-122.328;2022-07-23T03:20:46;101006.59;;;21.01;57.13
50462;BME280;45257;37.996;-122.328;2022-07-23T03:23:13;100990.47;;;21.01;57.22
50462;BME280;45257;37.996;-122.328;2022-07-23T03:25:40;101008.25;;;21.02;57.08
50462;BME280;45257;37.996;-122.328;2022-07-23T03:28:07;101004.75;;;21.02;57.18
50462;BME280;45257;37.996;-122.328;2022-07-23T03:30:34;101003.91;;;21.01;57.19
50462;BME280;45257;37.996;-122.328;2022-07-23T03:33:01;100993.16;;;21.01;57.29
50462;BME280;45257;37.996;-122.328;2022-07-23T03:35:28;101004.75;;;21.02;57.29
50462;BME280;45257;37.996;-122.328;2022-07-23T03:37:55;100991.31;;;21.02;57.22
50462;BME280;45257;37.996;-122.328;2022-07-23T03:40:21;100998.53;;;21.01;57.17
50462;BME280;45257;37.996;-122.328;2022-07-23T03:42:48;100995.84;;;21.01;57.11
50462;BME280;45257;37.996;-122.328;2022-07-23T03:45:15;100984.06;;;21.02;57.29
50462;BME280;45257;37.996;-122.328;2022-07-23T03:47:42;100993.16;;;21.01;57.23
50462;BME280;45257;37.996;-122.328;2022-07-23T03:50:10;100982.41;;;21.01;57.36
50462;BME280;45257;37.996;-122.328;2022-07-23T03:52:38;100989.44;;;21.02;57.39
50462;BME280;45257;37.996;-122.328;2022-07-23T03:55:05;101001.22;;;21.01;57.33
50462;BME280;45257;37.996;-122.328;2022-07-23T03:57:32;100987.78;;;21.01;57.40
50462;BME280;45257;37.996;-122.328;2022-07-23T03:59:59;100993.16;;;21.01;57.45
50462;BME280;45257;37.996;-122.328;2022-07-23T04:02:26;100999.38;;;21.02;57.27
50462;BME280;45257;37.996;-122.328;2022-07-23T04:04:54;100996.88;;;21.00;57.42
50462;BME280;45257;37.996;-122.328;2022-07-23T04:07:21;100996.69;;;21.02;57.42
50462;BME280;45257;37.996;-122.328;2022-07-23T04:09:48;100998.53;;;21.01;57.43
50462;BME280;45257;37.996;-122.328;2022-07-23T04:12:15;100996.88;;;21.00;57.84
50462;BME280;45257;37.996;-122.328;2022-07-23T04:14:43;101004.75;;;21.02;57.48
50462;BME280;45257;37.996;-122.328;2022-07-23T04:17:10;100994.19;;;21.00;57.41
50462;BME280;45257;37.996;-122.328;2022-07-23T04:19:37;100995.84;;;21.01;57.53
50462;BME280;45257;37.996;-122.328;2022-07-23T04:22:13;101001.22;;;21.01;57.36
50462;BME280;45257;37.996;-122.328;2022-07-23T04:24:40;100995.25;;;20.99;57.45
50462;BME280;45257;37.996;-122.328;2022-07-23T04:27:07;100999.56;;;21.00;57.66
50462;BME280;45257;37.996;-122.328;2022-07-23T04:29:34;101000.63;;;20.99;57.56
50462;BME280;45257;37.996;-122.328;2022-07-23T04:32:01;101011.38;;;20.99;57.56
50462;BME280;45257;37.996;-122.328;2022-07-23T04:34:28;100999.78;;;20.99;57.51
50462;BME280;45257;37.996;-122.328;2022-07-23T04:36:55;101014.06;;;20.99;57.49
50462;BME280;45257;37.996;-122.328;2022-07-23T04:39:22;101002.47;;;20.99;57.58
50462;BME280;45257;37.996;-122.328;2022-07-23T04:41:49;101001.84;;;20.97;57.67
50462;BME280;45257;37.996;-122.328;2022-07-23T04:44:16;101002.69;;;20.97;57.63
50462;BME280;45257;37.996;-122.328;2022-07-23T04:46:43;101005.38;;;20.97;57.60
50462;BME280;45257;37.996;-122.328;2022-07-23T04:49:10;101015.50;;;20.95;57.64
50462;BME280;45257;37.996;-122.328;2022-07-23T04:51:37;101010.94;;;20.96;57.62
50462;BME280;45257;37.996;-122.328;2022-07-23T04:54:04;101017.34;;;20.95;57.64
50462;BME280;45257;37.996;-122.328;2022-07-23T04:56:31;101013.84;;;20.94;57.61
50462;BME280;45257;37.996;-122.328;2022-07-23T04:58:59;101024.59;;;20.94;57.67
50462;BME280;45257;37.996;-122.328;2022-07-23T05:01:27;101018.56;;;20.92;57.65
50462;BME280;45257;37.996;-122.328;2022-07-23T05:03:53;101022.06;;;20.93;57.77
50462;BME280;45257;37.996;-122.328;2022-07-23T05:06:20;101003.47;;;20.91;57.48
50462;BME280;45257;37.996;-122.328;2022-07-23T05:08:47;101019.59;;;20.91;57.68
50462;BME280;45257;37.996;-122.328;2022-07-23T05:11:14;101018.78;;;20.91;57.66
50462;BME280;45257;37.996;-122.328;2022-07-23T05:13:42;101018.78;;;20.91;57.70
50462;BME280;45257;37.996;-122.328;2022-07-23T05:16:09;101005.53;;;20.89;57.75
50462;BME280;45257;37.996;-122.328;2022-07-23T05:18:36;101015.47;;;20.88;57.64
50462;BME280;45257;37.996;-122.328;2022-07-23T05:21:03;101018.34;;;20.87;57.72
50462;BME280;45257;37.996;-122.328;2022-07-23T05:23:30;101014.00;;;20.86;57.67
50462;BME280;45257;37.996;-122.328;2022-07-23T05:25:57;101005.94;;;20.86;57.76
50462;BME280;45257;37.996;-122.328;2022-07-23T05:28:24;101008.84;;;20.84;57.85
50462;BME280;45257;37.996;-122.328;2022-07-23T05:30:50;101011.72;;;20.83;57.86
50462;BME280;45257;37.996;-122.328;2022-07-23T05:33:21;101013.38;;;20.84;57.77
50462;BME280;45257;37.996;-122.328;2022-07-23T05:35:48;101015.44;;;20.82;57.62
50462;BME280;45257;37.996;-122.328;2022-07-23T05:38:15;101014.63;;;20.81;57.92
50462;BME280;45257;37.996;-122.328;2022-07-23T05:40:42;101009.47;;;20.80;57.84
50462;BME280;45257;37.996;-122.328;2022-07-23T05:43:09;101014.00;;;20.79;57.87
50462;BME280;45257;37.996;-122.328;2022-07-23T05:45:36;100999.75;;;20.79;57.69
50462;BME280;45257;37.996;-122.328;2022-07-23T05:48:03;101002.44;;;20.79;57.76
50462;BME280;45257;37.996;-122.328;2022-07-23T05:50:30;100991.03;;;20.77;58.10
50462;BME280;45257;37.996;-122.328;2022-07-23T05:52:57;100991.03;;;20.77;57.73
50462;BME280;45257;37.996;-122.328;2022-07-23T05:55:24;100996.41;;;20.77;57.87
50462;BME280;45257;37.996;-122.328;2022-07-23T05:57:51;100985.00;;;20.75;57.91
50462;BME280;45257;37.996;-122.328;2022-07-23T06:00:18;100979.63;;;20.75;57.76
50462;BME280;45257;37.996;-122.328;2022-07-23T06:02:45;100972.59;;;20.73;57.78
50462;BME280;45257;37.996;-122.328;2022-07-23T06:05:12;100980.88;;;20.72;57.88
50462;BME280;45257;37.996;-122.328;2022-07-23T06:07:39;100982.72;;;20.71;57.77
50462;BME280;45257;37.996;-122.328;2022-07-23T06:10:06;100991.81;;;20.70;57.87
50462;BME280;45257;37.996;-122.328;2022-07-23T06:12:33;100981.06;;;20.70;57.86
50462;BME280;45257;37.996;-122.328;2022-07-23T06:15:01;100970.31;;;20.70;58.01
50462;BME280;45257;37.996;-122.328;2022-07-23T06:17:28;100972.38;;;20.68;58.09
50462;BME280;45257;37.996;-122.328;2022-07-23T06:19:56;100970.72;;;20.67;57.93
50462;BME280;45257;37.996;-122.328;2022-07-23T06:22:23;100973.41;;;20.67;58.04
50462;BME280;45257;37.996;-122.328;2022-07-23T06:24:51;100983.34;;;20.67;58.04
50462;BME280;45257;37.996;-122.328;2022-07-23T06:27:18;100993.25;;;20.66;58.14
50462;BME280;45257;37.996;-122.328;2022-07-23T06:29:45;100980.84;;;20.65;58.10
50462;BME280;45257;37.996;-122.328;2022-07-23T06:32:12;100981.06;;;20.64;58.02
50462;BME280;45257;37.996;-122.328;2022-07-23T06:34:39;100970.53;;;20.62;58.11
50462;BME280;45257;37.996;-122.328;2022-07-23T06:37:06;100960.81;;;20.61;57.96
50462;BME280;45257;37.996;-122.328;2022-07-23T06:39:33;100959.16;;;20.60;58.09
50462;BME280;45257;37.996;-122.328;2022-07-23T06:42:00;100957.47;;;20.59;58.15
50462;BME280;45257;37.996;-122.328;2022-07-23T06:44:27;100965.72;;;20.57;58.25
50462;BME280;45257;37.996;-122.328;2022-07-23T06:46:55;100966.56;;;20.58;58.27
50462;BME280;45257;37.996;-122.328;2022-07-23T06:49:21;100962.22;;;20.57;58.30
50462;BME280;45257;37.996;-122.328;2022-07-23T06:51:52;100954.34;;;20.55;58.32
50462;BME280;45257;37.996;-122.328;2022-07-23T06:54:18;100964.28;;;20.55;58.24
50462;BME280;45257;37.996;-122.328;2022-07-23T06:56:45;100968.00;;;20.54;58.31
50462;BME280;45257;37.996;-122.328;2022-07-23T06:59:12;100967.38;;;20.52;58.18
50462;BME280;45257;37.996;-122.328;2022-07-23T07:01:39;100962.84;;;20.52;58.36
50462;BME280;45257;37.996;-122.328;2022-07-23T07:04:06;100962.00;;;20.52;58.23
50462;BME280;45257;37.996;-122.328;2022-07-23T07:06:33;100962.22;;;20.50;58.38
50462;BME280;45257;37.996;-122.328;2022-07-23T07:09:00;100953.31;;;20.50;58.41
50462;BME280;45257;37.996;-122.328;2022-07-23T07:11:27;100968.78;;;20.48;58.23
50462;BME280;45257;37.996;-122.328;2022-07-23T07:13:54;100957.41;;;20.46;58.36
50462;BME280;45257;37.996;-122.328;2022-07-23T07:16:21;100967.34;;;20.45;58.28
50462;BME280;45257;37.996;-122.328;2022-07-23T07:18:48;100978.31;;;20.43;58.30
50462;BME280;45257;37.996;-122.328;2022-07-23T07:21:15;100972.09;;;20.43;58.44
50462;BME280;45257;37.996;-122.328;2022-07-23T07:23:42;100982.03;;;20.42;58.46
50462;BME280;45257;37.996;-122.328;2022-07-23T07:26:09;100981.38;;;20.40;58.38
50462;BME280;45257;37.996;-122.328;2022-07-23T07:28:36;100976.03;;;20.40;58.42
50462;BME280;45257;37.996;-122.328;2022-07-23T07:31:03;100974.53;;;20.38;58.35
50462;BME280;45257;37.996;-122.328;2022-07-23T07:33:30;100978.25;;;20.37;58.48
50462;BME280;45257;37.996;-122.328;2022-07-23T07:35:57;100972.06;;;20.36;58.44
50462;BME280;45257;37.996;-122.328;2022-07-23T07:38:24;100966.91;;;20.35;58.41
50462;BME280;45257;37.996;-122.328;2022-07-23T07:40:51;100958.00;;;20.34;58.58
50462;BME280;45257;37.996;-122.328;2022-07-23T07:43:18;100995.59;;;20.34;58.55
50462;BME280;45257;37.996;-122.328;2022-07-23T07:45:46;101003.66;;;20.34;58.43
50462;BME280;45257;37.996;-122.328;2022-07-23T07:48:13;100984.22;;;20.32;58.63
50462;BME280;45257;37.996;-122.328;2022-07-23T07:50:41;100971.84;;;20.31;58.53
50462;BME280;45257;37.996;-122.328;2022-07-23T07:53:08;100965.00;;;20.28;58.66
50462;BME280;45257;37.996;-122.328;2022-07-23T07:55:35;100963.34;;;20.27;58.60
50462;BME280;45257;37.996;-122.328;2022-07-23T07:58:02;100970.56;;;20.27;58.68
50462;BME280;45257;37.996;-122.328;2022-07-23T08:00:29;100972.44;;;20.26;58.61
50462;BME280;45257;37.996;-122.328;2022-07-23T08:02:56;100967.28;;;20.25;58.66
50462;BME280;45257;37.996;-122.328;2022-07-23T08:05:27;100970.16;;;20.23;58.64
50462;BME280;45257;37.996;-122.328;2022-07-23T08:07:59;100965.63;;;20.24;58.74
50462;BME280;45257;37.996;-122.328;2022-07-23T08:10:27;100954.25;;;20.22;58.83
50462;BME280;45257;37.996;-122.328;2022-07-23T08:12:56;100962.47;;;20.20;59.02
50462;BME280;45257;37.996;-122.328;2022-07-23T08:15:27;100948.25;;;20.20;58.83
50462;BME280;45257;37.996;-122.328;2022-07-23T08:17:55;100957.31;;;20.19;59.05
50462;BME280;45257;37.996;-122.328;2022-07-23T08:20:24;100970.13;;;20.17;58.96
50462;BME280;45257;37.996;-122.328;2022-07-23T08:23:05;100956.69;;;20.17;58.80
50462;BME280;45257;37.996;-122.328;2022-07-23T08:25:39;100930.88;;;20.16;58.76
50462;BME280;45257;37.996;-122.328;2022-07-23T08:28:11;100990.34;;;20.12;58.83
50462;BME280;45257;37.996;-122.328;2022-07-23T08:30:41;100987.00;;;20.10;58.89
50462;BME280;45257;37.996;-122.328;2022-07-23T08:33:15;100966.56;;;20.09;58.87
50462;BME280;45257;37.996;-122.328;2022-07-23T08:35:48;100982.88;;;20.08;58.88
50462;BME280;45257;37.996;-122.328;2022-07-23T08:38:19;100955.22;;;20.07;59.01
50462;BME280;45257;37.996;-122.328;2022-07-23T08:40:51;100966.97;;;20.06;58.85
50462;BME280;45257;37.996;-122.328;2022-07-23T08:43:23;100956.25;;;20.06;59.16
50462;BME280;45257;37.996;-122.328;2022-07-23T08:45:53;100947.56;;;20.04;58.76
50462;BME280;45257;37.996;-122.328;2022-07-23T08:48:26;100933.28;;;20.04;59.07
50462;BME280;45257;37.996;-122.328;2022-07-23T08:50:56;100948.59;;;20.03;58.87
50462;BME280;45257;37.996;-122.328;2022-07-23T08:53:25;100943.59;;;20.00;58.97
50462;BME280;45257;37.996;-122.328;2022-07-23T08:55:59;100929.34;;;20.00;59.12
50462;BME280;45257;37.996;-122.328;2022-07-23T08:58:28;100934.09;;;19.97;59.06
50462;BME280;45257;37.996;-122.328;2022-07-23T09:00:56;100939.88;;;19.94;59.09
50462;BME280;45257;37.996;-122.328;2022-07-23T09:03:36;100950.59;;;19.94;58.90
50462;BME280;45257;37.996;-122.328;2022-07-23T09:06:04;100928.28;;;19.94;59.17
50462;BME280;45257;37.996;-122.328;2022-07-23T09:08:41;100940.91;;;19.93;59.17
50462;BME280;45257;37.996;-122.328;2022-07-23T09:11:11;100945.63;;;19.91;59.05
50462;BME280;45257;37.996;-122.328;2022-07-23T09:13:50;100950.16;;;19.91;59.13
50462;BME280;45257;37.996;-122.328;2022-07-23T09:16:24;100951.22;;;19.90;59.33
50462;BME280;45257;37.996;-122.328;2022-07-23T09:18:54;100945.22;;;19.88;59.26
50462;BME280;45257;37.996;-122.328;2022-07-23T09:21:27;100953.25;;;19.88;59.16
50462;BME280;45257;37.996;-122.328;2022-07-23T09:24:12;100967.84;;;19.85;59.36
50462;BME280;45257;37.996;-122.328;2022-07-23T09:26:46;100958.97;;;19.85;59.19
50462;BME280;45257;37.996;-122.328;2022-07-23T09:29:24;100962.69;;;19.83;59.56
50462;BME280;45257;37.996;-122.328;2022-07-23T09:31:56;100973.59;;;19.82;59.13
50462;BME280;45257;37.996;-122.328;2022-07-23T09:34:35;100979.19;;;19.80;59.24
50462;BME280;45257;37.996;-122.328;2022-07-23T09:37:17;100975.84;;;19.78;59.47
50462;BME280;45257;37.996;-122.328;2022-07-23T09:39:47;100991.31;;;19.76;59.48
50462;BME280;45257;37.996;-122.328;2022-07-23T09:42:23;100978.09;;;19.75;59.48
50462;BME280;45257;37.996;-122.328;2022-07-23T09:44:57;100993.38;;;19.74;59.29
50462;BME280;45257;37.996;-122.328;2022-07-23T09:47:27;100992.56;;;19.74;59.46
50462;BME280;45257;37.996;-122.328;2022-07-23T09:50:07;101000.78;;;19.72;59.36
50462;BME280;45257;37.996;-122.328;2022-07-23T09:52:48;100999.16;;;19.71;59.42
50462;BME280;45257;37.996;-122.328;2022-07-23T09:55:17;100990.25;;;19.71;59.38
50462;BME280;45257;37.996;-122.328;2022-07-23T09:57:46;100991.47;;;19.68;59.39
50462;BME280;45257;37.996;-122.328;2022-07-23T10:00:23;101008.59;;;19.67;59.38
50462;BME280;45257;37.996;-122.328;2022-07-23T10:02:52;101008.59;;;19.67;59.41
50462;BME280;45257;37.996;-122.328;2022-07-23T10:05:20;101013.34;;;19.65;59.39
50462;BME280;45257;37.996;-122.328;2022-07-23T10:07:47;101003.63;;;19.64;59.39
50462;BME280;45257;37.996;-122.328;2022-07-23T10:10:16;101009.00;;;19.64;59.53
50462;BME280;45257;37.996;-122.328;2022-07-23T10:12:47;101002.97;;;19.62;59.76
50462;BME280;45257;37.996;-122.328;2022-07-23T10:15:17;101002.16;;;19.61;59.74
50462;BME280;45257;37.996;-122.328;2022-07-23T10:20:36;101004.22;;;19.59;59.66
50462;BME280;45257;37.996;-122.328;2022-07-23T10:26:21;101000.03;;;19.57;59.44
50462;BME280;45257;37.996;-122.328;2022-07-23T10:32:15;101003.97;;;19.54;59.49
50462;BME280;45257;37.996;-122.328;2022-07-23T10:37:50;101004.34;;;19.51;59.53
50462;BME280;45257;37.996;-122.328;2022-07-23T10:40:22;101002.69;;;19.50;59.57
50462;BME280;45257;37.996;-122.328;2022-07-23T10:42:52;100996.50;;;19.49;59.81
50462;BME280;45257;37.996;-122.328;2022-07-23T10:47:54;100988.63;;;19.48;59.77
50462;BME280;45257;37.996;-122.328;2022-07-23T10:50:28;100996.88;;;19.46;59.71
50462;BME280;45257;37.996;-122.328;2022-07-23T10:55:41;100986.53;;;19.43;59.78
50462;BME280;45257;37.996;-122.328;2022-07-23T10:58:08;100991.09;;;19.43;59.84
50462;BME280;45257;37.996;-122.328;2022-07-23T11:00:36;101002.00;;;19.41;59.78
50462;BME280;45257;37.996;-122.328;2022-07-23T11:03:34;101000.31;;;19.40;59.84
50462;BME280;45257;37.996;-122.328;2022-07-23T11:06:06;101001.34;;;19.39;59.62
50462;BME280;45257;37.996;-122.328;2022-07-23T11:08:33;100994.31;;;19.38;59.74
50462;BME280;45257;37.996;-122.328;2022-07-23T11:11:10;100998.88;;;19.37;59.69
50462;BME280;45257;37.996;-122.328;2022-07-23T11:13:40;101003.38;;;19.37;59.78
50462;BME280;45257;37.996;-122.328;2022-07-23T11:16:20;101012.44;;;19.36;59.65
50462;BME280;45257;37.996;-122.328;2022-07-23T11:18:58;101005.47;;;19.35;59.72
50462;BME280;45257;37.996;-122.328;2022-07-23T11:23:59;101002.94;;;19.33;59.83
50462;BME280;45257;37.996;-122.328;2022-07-23T11:26:54;101010.19;;;19.33;59.91
50462;BME280;45257;37.996;-122.328;2022-07-23T11:29:37;101003.34;;;19.30;60.05
50462;BME280;45257;37.996;-122.328;2022-07-23T11:32:28;100998.19;;;19.29;60.04
50462;BME280;45257;37.996;-122.328;2022-07-23T11:34:56;100990.31;;;19.27;59.96
50462;BME280;45257;37.996;-122.328;2022-07-23T11:37:36;101006.59;;;19.26;60.09
50462;BME280;45257;37.996;-122.328;2022-07-23T11:40:09;101000.41;;;19.25;60.09
50462;BME280;45257;37.996;-122.328;2022-07-23T11:42:55;101000.59;;;19.24;59.98
50462;BME280;45257;37.996;-122.328;2022-07-23T11:45:24;100990.88;;;19.22;59.97
50462;BME280;45257;37.996;-122.328;2022-07-23T11:47:52;100991.91;;;19.21;60.08
50462;BME280;45257;37.996;-122.328;2022-07-23T11:50:19;101005.53;;;19.20;60.13
50462;BME280;45257;37.996;-122.328;2022-07-23T11:52:46;101007.34;;;19.19;60.14
50462;BME280;45257;37.996;-122.328;2022-07-23T11:55:13;101004.03;;;19.17;59.99
50462;BME280;45257;37.996;-122.328;2022-07-23T11:57:43;101003.22;;;19.17;60.41
50462;BME280;45257;37.996;-122.328;2022-07-23T12:00:16;100998.06;;;19.15;60.25
50462;BME280;45257;37.996;-122.328;2022-07-23T12:02:47;101008.97;;;19.14;60.20
50462;BME280;45257;37.996;-122.328;2022-07-23T12:05:18;101009.97;;;19.13;60.20
50462;BME280;45257;37.996;-122.328;2022-07-23T12:07:48;101006.47;;;19.12;60.19
50462;BME280;45257;37.996;-122.328;2022-07-23T12:10:28;101018.22;;;19.11;60.14
50462;BME280;45257;37.996;-122.328;2022-07-23T12:12:59;101009.34;;;19.11;60.32
50462;BME280;45257;37.996;-122.328;2022-07-23T12:15:34;101003.97;;;19.11;60.24
50462;BME280;45257;37.996;-122.328;2022-07-23T12:18:05;101010.34;;;19.10;60.35
50462;BME280;45257;37.996;-122.328;2022-07-23T12:20:37;101005.19;;;19.08;60.27
50462;BME280;45257;37.996;-122.328;2022-07-23T12:23:07;101013.44;;;19.06;60.30
50462;BME280;45257;37.996;-122.328;2022-07-23T12:25:38;101024.16;;;19.06;60.47
50462;BME280;45257;37.996;-122.328;2022-07-23T12:28:08;101028.88;;;19.04;60.37
50462;BME280;45257;37.996;-122.328;2022-07-23T12:30:54;101028.03;;;19.04;60.56
50462;BME280;45257;37.996;-122.328;2022-07-23T12:33:31;101045.13;;;19.03;60.42
50462;BME280;45257;37.996;-122.328;2022-07-23T12:36:00;101048.00;;;19.01;60.47
50462;BME280;45257;37.996;-122.328;2022-07-23T12:38:37;101051.72;;;19.00;60.49
50462;BME280;45257;37.996;-122.328;2022-07-23T12:41:05;101050.88;;;19.00;60.35
50462;BME280;45257;37.996;-122.328;2022-07-23T12:43:37;101052.94;;;18.98;60.61
50462;BME280;45257;37.996;-122.328;2022-07-23T12:46:15;101055.59;;;18.98;60.51
50462;BME280;45257;37.996;-122.328;2022-07-23T12:51:29;101057.66;;;18.96;60.76
50462;BME280;45257;37.996;-122.328;2022-07-23T12:54:08;101058.66;;;18.95;60.42